Time;durP1;ratioP1;P1;durP2;ratioP2;P2;SDS_P1;SDS_P2;PMS_P1;PMS_P2;Temp;Humidity;BMP_temperature;BMP_pressure;BME280_temperature;BME280_humidity;BME280_pressure;Samples;Min_cycle;Max_cycle;Signal;HPM_P1;HPM_P2
2022/01/08 00:02:23;;;;;;;4.50;2.95;;;1.10;99.90;;;;;;1826568;78;21105;-81
2022/01/08 00:04:50;;;;;;;4.97;3.10;;;1.10;99.90;;;;;;1826656;78;21472;-79
2022/01/08 00:07:18;;;;;;;3.85;2.95;;;1.10;99.90;;;;;;1826646;78;21039;-80
2022/01/08 00:09:45;;;;;;;4.75;2.92;;;1.10;99.90;;;;;;1826486;78;21116;-79
2022/01/08 00:12:13;;;;;;;8.00;2.85;;;1.00;99.90;;;;;;1826421;78;21120;-79
2022/01/08 00:14:40;;;;;;;9.05;3.52;;;1.00;99.90;;;;;;1792224;78;21148;-79
2022/01/08 00:17:08;;;;;;;3.95;2.62;;;0.90;99.90;;;;;;1826443;78;21066;-78
2022/01/08 00:19:35;;;;;;;5.35;3.65;;;0.80;99.90;;;;;;1826420;78;21054;-78
2022/01/08 00:22:02;;;;;;;5.53;3.65;;;0.70;99.90;;;;;;1826497;78;21542;-78
2022/01/08 00:24:30;;;;;;;4.95;3.40;;;0.70;99.90;;;;;;1826429;78;21111;-78
2022/01/08 00:26:57;;;;;;;3.98;3.17;;;0.70;99.90;;;;;;1826377;78;21140;-78
2022/01/08 00:29:24;;;;;;;4.92;3.95;;;0.70;99.90;;;;;;1826513;78;21067;-78
2022/01/08 00:31:52;;;;;;;4.97;3.45;;;0.80;99.90;;;;;;1826460;78;21066;-79
2022/01/08 00:34:21;;;;;;;4.70;3.42;;;0.80;99.90;;;;;;1826492;78;21027;-79
2022/01/08 00:36:48;;;;;;;7.35;3.70;;;0.80;99.90;;;;;;1825734;78;21066;-79
2022/01/08 00:39:15;;;;;;;5.47;3.70;;;0.90;99.90;;;;;;1826516;78;21031;-79
2022/01/08 00:41:46;;;;;;;5.42;3.83;;;0.90;99.90;;;;;;1826502;78;21054;-79
2022/01/08 00:44:16;;;;;;;4.60;3.92;;;0.90;99.90;;;;;;1826630;78;21182;-79
2022/01/08 00:46:42;;;;;;;5.12;3.90;;;1.00;99.90;;;;;;1826333;77;21498;-79
2022/01/08 00:49:10;;;;;;;5.58;3.87;;;1.00;99.90;;;;;;1826547;78;21199;-78
2022/01/08 00:51:37;;;;;;;7.15;3.90;;;1.20;99.90;;;;;;1792616;78;21093;-78
2022/01/08 00:54:06;;;;;;;7.83;3.47;;;1.20;99.90;;;;;;1826468;78;21062;-78
2022/01/08 00:56:33;;;;;;;4.85;3.67;;;1.20;99.90;;;;;;1826562;78;21153;-78
2022/01/08 00:59:03;;;;;;;4.25;3.37;;;1.20;99.90;;;;;;1826528;78;21058;-79
2022/01/08 01:01:29;;;;;;;4.33;3.72;;;1.40;99.90;;;;;;1818760;77;21241;-79
2022/01/08 01:03:57;;;;;;;4.12;3.17;;;1.40;99.90;;;;;;1826005;78;21422;-79
2022/01/08 01:06:25;;;;;;;4.25;3.55;;;1.40;99.90;;;;;;1826363;78;21058;-79
2022/01/08 01:08:52;;;;;;;4.60;3.70;;;1.30;99.90;;;;;;1826536;78;21458;-77
2022/01/08 01:11:19;;;;;;;5.00;3.83;;;1.30;99.90;;;;;;1826424;78;21071;-77
2022/01/08 01:13:47;;;;;;;5.08;3.37;;;1.40;99.90;;;;;;1826447;78;21121;-79
2022/01/08 01:16:14;;;;;;;6.83;3.67;;;1.50;99.90;;;;;;1826486;78;21062;-79
2022/01/08 01:18:41;;;;;;;5.30;3.87;;;1.30;99.90;;;;;;1826360;78;21594;-80
2022/01/08 01:21:09;;;;;;;7.67;3.92;;;1.30;99.90;;;;;;1826447;78;21035;-78
2022/01/08 01:23:42;;;;;;;4.92;4.00;;;1.30;99.90;;;;;;1826534;78;21063;-78
2022/01/08 01:26:14;;;;;;;5.65;3.72;;;1.40;99.90;;;;;;1826126;77;21238;-79
2022/01/08 01:28:47;;;;;;;6.25;3.85;;;1.50;99.90;;;;;;1825410;78;21127;-77
2022/01/08 01:47:10;;;;;;;6.87;3.17;;;1.70;99.90;;;;;;1826518;78;21164;-78
2022/01/08 01:49:39;;;;;;;7.22;3.30;;;1.70;99.90;;;;;;1826462;78;21086;-78
2022/01/08 01:52:08;;;;;;;5.30;3.33;;;1.60;99.90;;;;;;1826559;78;21038;-77
2022/01/08 01:54:35;;;;;;;5.60;3.27;;;1.70;99.90;;;;;;1826607;78;21082;-78
2022/01/08 01:57:03;;;;;;;3.65;2.95;;;1.50;99.90;;;;;;1826329;78;21169;-77
2022/01/08 01:59:33;;;;;;;4.83;3.20;;;1.60;99.90;;;;;;1826619;78;21161;-78
2022/01/08 02:02:01;;;;;;;6.47;3.80;;;1.60;99.90;;;;;;1826530;78;21063;-78
2022/01/08 02:04:28;;;;;;;4.12;2.85;;;1.50;99.90;;;;;;1826450;78;21140;-76
2022/01/08 02:06:55;;;;;;;4.00;3.15;;;1.60;99.90;;;;;;1826356;78;21066;-78
2022/01/08 02:09:23;;;;;;;3.92;3.08;;;1.70;99.90;;;;;;1826405;78;21128;-78
2022/01/08 02:12:05;;;;;;;3.47;2.52;;;1.80;99.90;;;;;;1826409;78;21438;-78
2022/01/08 02:14:34;;;;;;;4.53;2.65;;;1.80;99.90;;;;;;1826348;78;21030;-78
2022/01/08 02:17:03;;;;;;;3.25;2.05;;;1.90;99.90;;;;;;1826347;78;21117;-78
2022/01/08 02:19:30;;;;;;;3.65;2.10;;;2.10;99.90;;;;;;1826427;78;21459;-77
2022/01/08 02:21:59;;;;;;;2.98;1.82;;;2.20;99.90;;;;;;1826403;78;21035;-79
2022/01/08 02:24:27;;;;;;;5.87;1.80;;;2.40;99.90;;;;;;1791749;78;21121;-77
2022/01/08 02:26:54;;;;;;;2.22;1.60;;;2.50;99.90;;;;;;1826495;78;21074;-78
2022/01/08 02:29:22;;;;;;;1.85;1.65;;;2.60;99.90;;;;;;1826401;78;21501;-77
2022/01/08 02:31:58;;;;;;;3.12;1.67;;;2.70;99.90;;;;;;1826423;78;21145;-79
2022/01/08 02:34:26;;;;;;;2.52;1.40;;;2.70;99.90;;;;;;1826403;78;21085;-77
2022/01/08 02:36:55;;;;;;;2.98;1.65;;;2.70;99.90;;;;;;1792121;78;21453;-78
2022/01/08 02:39:23;;;;;;;2.83;1.65;;;2.70;99.90;;;;;;1825664;78;21077;-79
2022/01/08 02:41:56;;;;;;;3.85;1.60;;;2.80;99.90;;;;;;1826502;78;21535;-78
2022/01/08 02:44:21;;;;;;;1.82;1.72;;;2.80;99.90;;;;;;1826117;78;21155;-78
2022/01/08 02:46:48;;;;;;;1.92;1.10;;;2.80;99.90;;;;;;1826581;78;21172;-78
2022/01/08 02:49:15;;;;;;;3.22;1.65;;;2.90;99.90;;;;;;1826447;78;21038;-78
2022/01/08 02:51:42;;;;;;;2.17;1.37;;;2.80;99.90;;;;;;1826416;78;21235;-78
2022/01/08 02:54:11;;;;;;;1.87;1.42;;;2.90;99.90;;;;;;1826360;78;21125;-78
2022/01/08 02:56:44;;;;;;;2.80;1.52;;;2.90;99.90;;;;;;1826447;78;21116;-78
2022/01/08 02:59:12;;;;;;;2.80;1.47;;;2.90;99.90;;;;;;1826565;78;21121;-78
2022/01/08 03:01:40;;;;;;;1.87;1.15;;;2.90;99.90;;;;;;1826584;78;21469;-79
2022/01/08 03:04:07;;;;;;;2.33;1.50;;;3.00;99.90;;;;;;1826511;78;21070;-78
2022/01/08 03:06:34;;;;;;;2.50;1.45;;;2.90;99.90;;;;;;1826374;78;21179;-77
2022/01/08 03:09:02;;;;;;;2.20;1.57;;;2.90;99.90;;;;;;1826454;78;21074;-77
2022/01/08 03:11:29;;;;;;;1.87;1.27;;;3.00;99.90;;;;;;1826459;78;21442;-78
2022/01/08 03:13:56;;;;;;;4.00;1.70;;;3.00;99.90;;;;;;1826525;78;21147;-78
2022/01/08 03:16:24;;;;;;;2.08;1.42;;;2.80;99.90;;;;;;1826403;78;21116;-79
2022/01/08 03:18:51;;;;;;;4.20;1.67;;;3.00;99.90;;;;;;1826415;78;21082;-78
2022/01/08 03:21:20;;;;;;;2.15;1.57;;;2.90;99.90;;;;;;1826502;78;21062;-78
2022/01/08 03:23:54;;;;;;;2.20;1.50;;;2.90;99.90;;;;;;1826363;77;21156;-79
2022/01/08 03:26:20;;;;;;;2.95;1.80;;;3.00;99.90;;;;;;1825575;78;21094;-79
2022/01/08 03:28:47;;;;;;;1.90;1.67;;;3.10;99.90;;;;;;1826492;78;21039;-79
2022/01/08 03:31:15;;;;;;;1.57;1.40;;;3.10;99.90;;;;;;1826435;78;21054;-78
2022/01/08 03:33:45;;;;;;;1.60;1.40;;;3.10;99.90;;;;;;1826508;78;21082;-78
2022/01/08 03:36:14;;;;;;;2.00;1.32;;;3.20;99.90;;;;;;1827032;78;21599;-77
2022/01/08 03:38:42;;;;;;;4.03;1.40;;;3.30;99.90;;;;;;1827372;78;21511;-79
2022/01/08 03:41:09;;;;;;;4.08;1.25;;;3.50;99.90;;;;;;1826781;78;21454;-79
2022/01/08 03:43:37;;;;;;;1.77;0.80;;;3.60;99.90;;;;;;1826749;78;21061;-79
2022/01/08 03:46:05;;;;;;;1.55;1.07;;;3.70;99.90;;;;;;1826742;78;21035;-78
2022/01/08 03:48:48;;;;;;;1.70;1.00;;;3.70;99.90;;;;;;1792295;78;21118;-78
2022/01/08 03:51:15;;;;;;;2.40;0.82;;;3.70;99.90;;;;;;1826606;77;21103;-80
2022/01/08 03:53:42;;;;;;;2.52;1.00;;;3.70;99.90;;;;;;1826772;78;21116;-78
2022/01/08 03:56:10;;;;;;;4.15;1.57;;;3.80;99.90;;;;;;1826769;78;21035;-79
2022/01/08 03:58:37;;;;;;;0.82;0.62;;;3.90;99.90;;;;;;1792464;78;21120;-80
2022/01/08 04:01:04;;;;;;;0.50;0.50;;;3.90;99.90;;;;;;1826699;78;21548;-77
2022/01/08 04:03:33;;;;;;;1.40;0.93;;;3.90;99.90;;;;;;1826560;78;21058;-78
2022/01/08 04:06:01;;;;;;;0.68;0.68;;;3.80;99.90;;;;;;1826644;78;21180;-78
2022/01/08 04:08:28;;;;;;;1.27;0.88;;;3.80;99.90;;;;;;1826554;78;21054;-79
2022/01/08 04:10:55;;;;;;;1.87;1.02;;;3.80;99.90;;;;;;1826523;78;21052;-79
2022/01/08 04:13:26;;;;;;;0.57;0.50;;;3.70;99.90;;;;;;1826652;78;21171;-78
2022/01/08 04:15:57;;;;;;;0.80;0.70;;;3.70;99.90;;;;;;1825967;78;21478;-80
2022/01/08 04:18:22;;;;;;;0.75;0.70;;;3.70;99.90;;;;;;1825932;78;21255;-80
2022/01/08 04:23:36;;;;;;;0.82;0.72;;;3.70;99.90;;;;;;1826672;78;21490;-80
2022/01/08 04:26:04;;;;;;;4.95;1.15;;;3.60;99.90;;;;;;1826652;78;21058;-80
2022/01/08 04:28:33;;;;;;;4.35;0.80;;;3.70;99.90;;;;;;1826586;78;21131;-79
2022/01/08 04:31:01;;;;;;;0.68;0.68;;;3.80;99.90;;;;;;1798389;77;21093;-79
2022/01/08 04:33:28;;;;;;;2.35;0.80;;;3.80;99.90;;;;;;1756073;81;21520;-79
2022/01/08 04:35:56;;;;;;;2.02;0.80;;;3.80;99.90;;;;;;1826577;78;21129;-80
2022/01/08 04:38:23;;;;;;;1.22;0.68;;;3.80;99.90;;;;;;1826563;78;21139;-79
2022/01/08 04:40:50;;;;;;;1.20;0.80;;;3.80;99.90;;;;;;1826775;78;21031;-79
2022/01/08 04:43:18;;;;;;;1.37;0.60;;;3.90;99.90;;;;;;1826699;78;21422;-78
2022/01/08 04:45:45;;;;;;;0.50;0.50;;;3.90;99.90;;;;;;1826743;78;21491;-79
2022/01/08 04:48:12;;;;;;;0.80;0.50;;;3.90;99.90;;;;;;1826500;78;21117;-78
2022/01/08 04:50:40;;;;;;;2.27;0.93;;;3.90;99.90;;;;;;1826584;78;21054;-79
2022/01/08 04:53:09;;;;;;;2.08;0.70;;;3.90;99.90;;;;;;1826695;78;21066;-78
2022/01/08 04:55:36;;;;;;;0.60;0.60;;;3.90;99.90;;;;;;1826497;78;21089;-78
2022/01/08 04:58:05;;;;;;;0.60;0.60;;;3.90;99.90;;;;;;1826657;78;21042;-78
2022/01/08 05:00:33;;;;;;;0.80;0.80;;;3.80;99.90;;;;;;1826691;78;21196;-78
2022/01/08 05:03:01;;;;;;;2.05;0.70;;;3.80;99.90;;;;;;1826659;78;21128;-78
2022/01/08 05:05:28;;;;;;;1.87;1.07;;;3.70;99.90;;;;;;1826633;78;21148;-77
2022/01/08 05:07:55;;;;;;;1.42;0.60;;;3.70;99.90;;;;;;1826749;78;21073;-77
2022/01/08 05:10:23;;;;;;;0.70;0.70;;;3.60;99.90;;;;;;1826732;78;21079;-76
2022/01/08 05:12:50;;;;;;;0.80;0.80;;;3.60;99.90;;;;;;1826638;78;21120;-79
2022/01/08 05:15:18;;;;;;;0.72;0.72;;;3.50;99.90;;;;;;1826594;78;21054;-76
2022/01/08 05:17:53;;;;;;;1.37;0.78;;;3.40;99.90;;;;;;1826818;78;21030;-78
2022/01/08 05:20:15;;;;;;;5.35;0.90;;;3.30;99.90;;;;;;1825433;78;21152;-78
2022/01/08 05:22:53;;;;;;;1.10;0.75;;;3.10;99.90;;;;;;1826677;78;21078;-77
2022/01/08 05:25:20;;;;;;;0.53;0.40;;;3.10;99.90;;;;;;1825796;77;21203;-76
2022/01/08 05:27:49;;;;;;;1.03;0.87;;;2.90;99.90;;;;;;1826178;78;21043;-76
2022/01/08 05:30:17;;;;;;;1.07;0.85;;;2.90;99.90;;;;;;1826626;78;21363;-77
2022/01/08 05:32:45;;;;;;;0.80;0.80;;;2.80;99.90;;;;;;1826602;78;21042;-77
2022/01/08 05:35:12;;;;;;;0.72;0.72;;;2.70;99.90;;;;;;1826625;78;21086;-76
2022/01/08 05:37:39;;;;;;;3.05;0.90;;;2.70;99.90;;;;;;1826592;78;21054;-76
2022/01/08 05:40:09;;;;;;;2.30;0.78;;;2.70;99.90;;;;;;1826765;78;21066;-77
2022/01/08 05:42:36;;;;;;;1.60;0.80;;;2.80;99.90;;;;;;1826981;78;21058;-76
2022/01/08 05:45:04;;;;;;;1.35;0.75;;;2.70;99.90;;;;;;1826635;78;21043;-77
2022/01/08 05:47:33;;;;;;;1.07;0.90;;;2.70;99.90;;;;;;1826528;78;21494;-77
2022/01/08 05:50:00;;;;;;;0.88;0.80;;;2.70;99.90;;;;;;1826577;78;21140;-77
2022/01/08 05:52:28;;;;;;;2.20;0.90;;;2.80;99.90;;;;;;1826628;78;21057;-77
2022/01/08 05:54:55;;;;;;;0.80;0.80;;;2.70;99.90;;;;;;1826968;78;21074;-78
2022/01/08 05:57:24;;;;;;;0.62;0.62;;;2.70;99.90;;;;;;1827055;78;21167;-77
2022/01/08 05:59:51;;;;;;;1.22;0.90;;;2.70;99.90;;;;;;1826640;78;21415;-77
2022/01/08 06:02:18;;;;;;;1.42;0.80;;;2.70;99.90;;;;;;1826788;78;21120;-77
2022/01/08 06:04:45;;;;;;;3.47;0.80;;;2.70;99.90;;;;;;1826868;78;21133;-77
2022/01/08 06:07:13;;;;;;;0.80;0.80;;;2.70;99.90;;;;;;1826725;78;21191;-77
2022/01/08 06:09:40;;;;;;;0.68;0.65;;;2.70;99.90;;;;;;1826825;78;21209;-78
2022/01/08 06:12:08;;;;;;;1.95;0.80;;;2.80;99.90;;;;;;1827948;78;21066;-77
2022/01/08 06:14:44;;;;;;;0.80;0.80;;;2.80;99.90;;;;;;1827538;78;21042;-78
2022/01/08 06:17:11;;;;;;;1.00;0.90;;;2.80;99.90;;;;;;1828093;78;21528;-77
2022/01/08 06:19:39;;;;;;;0.68;0.60;;;2.80;99.90;;;;;;1827312;78;21035;-78
2022/01/08 06:22:06;;;;;;;1.32;0.78;;;2.90;99.90;;;;;;1826886;78;21073;-77
2022/01/08 06:24:33;;;;;;;0.40;0.40;;;2.90;99.90;;;;;;1826713;78;21155;-78
2022/01/08 06:27:01;;;;;;;1.50;0.50;;;2.90;99.90;;;;;;1826869;78;21461;-78
2022/01/08 06:29:28;;;;;;;0.28;0.28;;;2.90;99.90;;;;;;1826939;78;21061;-78
2022/01/08 06:31:55;;;;;;;0.30;0.30;;;2.90;99.90;;;;;;1826593;78;21109;-78
2022/01/08 06:34:23;;;;;;;0.30;0.30;;;2.80;99.90;;;;;;1826727;78;21097;-78
2022/01/08 06:36:50;;;;;;;1.12;0.42;;;2.80;99.90;;;;;;1828385;78;21062;-77
2022/01/08 06:39:17;;;;;;;0.40;0.40;;;2.80;99.90;;;;;;1830217;78;21176;-78
2022/01/08 06:41:45;;;;;;;0.37;0.37;;;2.80;99.90;;;;;;1830097;78;21051;-77
2022/01/08 06:44:12;;;;;;;0.30;0.30;;;2.70;99.90;;;;;;1827037;78;21430;-78
2022/01/08 06:46:40;;;;;;;0.90;0.33;;;2.70;99.90;;;;;;1826974;78;21160;-79
2022/01/08 06:49:09;;;;;;;0.40;0.37;;;2.70;99.90;;;;;;1826890;78;21156;-78
2022/01/08 06:51:38;;;;;;;0.50;0.30;;;2.70;99.90;;;;;;1826655;78;21150;-79
2022/01/08 06:54:05;;;;;;;0.35;0.35;;;2.70;99.90;;;;;;1822683;77;21520;-79
2022/01/08 06:56:33;;;;;;;0.40;0.40;;;2.70;99.90;;;;;;1757264;81;21138;-79
2022/01/08 06:59:00;;;;;;;0.30;0.30;;;2.70;99.90;;;;;;1826549;78;21116;-79
2022/01/08 07:01:28;;;;;;;0.40;0.30;;;2.70;99.90;;;;;;1826536;78;21112;-77
2022/01/08 07:03:56;;;;;;;0.28;0.28;;;2.70;99.90;;;;;;1826756;78;21058;-78
2022/01/08 07:06:23;;;;;;;0.60;0.50;;;2.70;99.90;;;;;;1826486;78;21164;-79
2022/01/08 07:08:50;;;;;;;0.40;0.40;;;2.70;99.90;;;;;;1792210;78;21039;-78
2022/01/08 07:11:18;;;;;;;1.27;0.62;;;2.70;99.90;;;;;;1826520;78;21038;-79
2022/01/08 07:13:45;;;;;;;0.53;0.53;;;2.70;99.90;;;;;;1826534;78;21548;-79
2022/01/08 07:16:12;;;;;;;0.65;0.45;;;2.70;99.90;;;;;;1827308;78;21058;-78
2022/01/08 07:18:40;;;;;;;1.35;0.65;;;2.70;99.90;;;;;;1826807;78;21124;-74
2022/01/08 07:21:07;;;;;;;0.98;0.50;;;2.80;99.90;;;;;;1826903;78;21136;-73
2022/01/08 07:23:34;;;;;;;0.72;0.68;;;2.70;99.90;;;;;;1827468;78;21160;-73
2022/01/08 07:26:02;;;;;;;0.65;0.62;;;2.70;99.90;;;;;;1827705;78;21136;-73
2022/01/08 07:28:29;;;;;;;0.72;0.72;;;2.70;99.90;;;;;;1827134;78;21403;-73
2022/01/08 07:30:56;;;;;;;0.60;0.60;;;2.70;99.90;;;;;;1827416;78;21235;-73
2022/01/08 07:33:24;;;;;;;2.35;0.72;;;2.70;99.90;;;;;;1827361;78;21098;-74
2022/01/08 07:35:51;;;;;;;1.57;0.82;;;2.80;99.90;;;;;;1827619;78;21131;-72
2022/01/08 07:38:18;;;;;;;0.70;0.70;;;2.70;99.90;;;;;;1827410;78;21057;-72
2022/01/08 07:40:50;;;;;;;2.22;0.90;;;2.70;99.90;;;;;;1827422;78;21465;-72
2022/01/08 07:43:14;;;;;;;5.53;1.27;;;2.70;99.90;;;;;;1826330;78;21108;-72
2022/01/08 07:45:42;;;;;;;1.25;1.15;;;2.60;99.90;;;;;;1827214;78;21051;-74
2022/01/08 07:48:09;;;;;;;0.88;0.85;;;2.60;99.90;;;;;;1826800;78;21143;-73
2022/01/08 07:50:56;;;;;;;1.60;1.37;;;2.50;99.90;;;;;;1826633;78;21508;-75
2022/01/08 07:53:23;;;;;;;3.15;1.32;;;2.50;99.90;;;;;;1844281;78;21440;-75
2022/01/08 07:55:50;;;;;;;3.30;1.32;;;2.60;99.90;;;;;;1844431;78;21057;-75
2022/01/08 07:58:20;;;;;;;1.52;1.15;;;2.60;99.90;;;;;;1844363;78;21030;-76
2022/01/08 08:00:50;;;;;;;1.35;1.02;;;2.70;99.90;;;;;;1843967;78;21101;-75
2022/01/08 08:03:18;;;;;;;1.35;1.25;;;2.70;99.90;;;;;;1844179;78;21103;-76
2022/01/08 08:05:46;;;;;;;1.20;1.10;;;2.80;99.90;;;;;;1844173;78;21061;-75
2022/01/08 08:08:17;;;;;;;2.67;1.40;;;2.70;99.90;;;;;;1844108;78;21158;-75
2022/01/08 08:10:48;;;;;;;2.92;1.32;;;2.80;99.90;;;;;;1844112;78;21200;-76
2022/01/08 08:13:15;;;;;;;2.30;1.40;;;2.80;99.90;;;;;;1844075;78;21480;-76
2022/01/08 08:15:42;;;;;;;1.32;1.20;;;2.80;99.90;;;;;;1844136;78;21139;-74
2022/01/08 08:18:09;;;;;;;1.20;1.10;;;2.80;99.90;;;;;;1844102;78;21130;-74
2022/01/08 08:20:37;;;;;;;2.02;1.20;;;2.90;99.90;;;;;;1843966;78;21119;-75
2022/01/08 08:23:04;;;;;;;2.10;1.10;;;2.90;99.90;;;;;;1844242;78;21115;-77
2022/01/08 08:25:31;;;;;;;9.03;1.30;;;2.90;99.90;;;;;;1844047;78;21084;-77
2022/01/08 08:27:59;;;;;;;1.85;1.17;;;3.00;99.90;;;;;;1843999;78;21127;-75
2022/01/08 08:30:29;;;;;;;3.00;1.40;;;3.00;99.90;;;;;;1844112;78;21076;-76
2022/01/08 08:32:56;;;;;;;1.92;1.17;;;2.90;99.90;;;;;;1844022;78;21114;-76
2022/01/08 08:35:24;;;;;;;6.10;1.90;;;2.90;99.90;;;;;;1843985;78;21030;-75
2022/01/08 08:37:51;;;;;;;9.83;2.27;;;2.90;99.90;;;;;;1844069;78;21190;-75
2022/01/08 08:40:18;;;;;;;3.12;1.85;;;2.90;99.90;;;;;;1844160;78;21053;-77
2022/01/08 08:42:46;;;;;;;2.12;1.72;;;2.90;99.90;;;;;;1844223;78;21053;-76
2022/01/08 08:45:13;;;;;;;2.85;1.70;;;2.90;99.90;;;;;;1844163;78;21068;-77
2022/01/08 08:47:40;;;;;;;3.12;1.85;;;2.90;99.90;;;;;;1844158;78;21127;-76
2022/01/08 08:50:09;;;;;;;3.87;1.35;;;3.00;99.90;;;;;;1844086;78;21430;-75
2022/01/08 08:52:36;;;;;;;1.52;1.20;;;3.00;99.90;;;;;;1844091;78;21037;-78
2022/01/08 08:55:04;;;;;;;1.85;1.42;;;3.00;99.90;;;;;;1844079;78;21441;-76
2022/01/08 08:57:32;;;;;;;3.30;1.80;;;3.00;99.90;;;;;;1813577;78;21112;-76
2022/01/08 08:59:59;;;;;;;2.58;1.10;;;3.10;99.90;;;;;;1844073;78;21425;-77
2022/01/08 09:02:26;;;;;;;2.52;1.35;;;3.00;99.90;;;;;;1844112;78;21033;-77
2022/01/08 09:04:53;;;;;;;1.83;1.03;;;3.20;99.90;;;;;;1844176;78;21057;-80
2022/01/08 09:07:21;;;;;;;2.22;1.00;;;3.20;99.90;;;;;;1844129;78;21065;-73
2022/01/08 09:09:48;;;;;;;2.62;1.15;;;3.30;99.90;;;;;;1844151;78;21057;-75
2022/01/08 09:12:16;;;;;;;2.35;0.68;;;3.30;99.90;;;;;;1844129;78;21448;-74
2022/01/08 09:14:43;;;;;;;1.95;1.00;;;3.40;99.90;;;;;;1844080;78;21536;-75
2022/01/08 09:17:11;;;;;;;3.25;1.02;;;3.40;99.90;;;;;;1844042;78;21539;-74
2022/01/08 09:19:38;;;;;;;1.55;0.98;;;3.40;99.90;;;;;;1843988;78;21125;-75
2022/01/08 09:22:05;;;;;;;2.20;1.27;;;3.30;99.90;;;;;;1844091;78;21122;-74
2022/01/08 09:24:34;;;;;;;3.90;1.67;;;3.40;99.90;;;;;;1843997;78;21489;-74
2022/01/08 09:27:03;;;;;;;3.50;1.10;;;3.40;99.90;;;;;;1844142;78;21162;-77
2022/01/08 09:29:30;;;;;;;3.77;1.22;;;3.50;99.90;;;;;;1843989;78;21072;-74
2022/01/08 09:31:57;;;;;;;3.62;0.88;;;3.40;99.90;;;;;;1844064;78;21057;-74
2022/01/08 09:34:25;;;;;;;4.80;0.90;;;3.50;99.90;;;;;;1844040;78;21200;-75
2022/01/08 09:36:52;;;;;;;2.17;1.25;;;3.60;99.90;;;;;;1844210;78;21085;-75
2022/01/08 09:39:19;;;;;;;2.10;1.05;;;3.50;99.90;;;;;;1844050;78;21118;-76
2022/01/08 09:41:46;;;;;;;2.08;1.30;;;3.50;99.90;;;;;;1843978;78;21142;-76
2022/01/08 09:44:14;;;;;;;2.00;0.95;;;3.40;99.90;;;;;;1844049;78;21061;-75
2022/01/08 09:46:41;;;;;;;1.55;1.00;;;3.40;99.90;;;;;;1844143;78;21444;-76
2022/01/08 09:49:10;;;;;;;2.65;1.07;;;3.60;99.90;;;;;;1844256;78;21057;-75
2022/01/08 09:51:41;;;;;;;1.40;0.80;;;3.60;99.90;;;;;;1844154;78;21098;-75
2022/01/08 09:54:12;;;;;;;;;;;3.70;99.90;;;;;;1846945;78;21500;-85
2022/01/08 09:56:40;;;;;;;2.60;0.88;;;3.60;99.90;;;;;;1814296;78;20115;-85
2022/01/08 09:59:07;;;;;;;4.22;1.22;;;3.70;99.90;;;;;;1845029;78;21065;-79
2022/01/08 10:01:35;;;;;;;2.87;1.32;;;3.60;99.90;;;;;;1814740;78;21084;-76
2022/01/08 10:04:05;;;;;;;2.55;1.30;;;3.60;99.90;;;;;;1844834;78;21157;-79
2022/01/08 10:06:36;;;;;;;6.67;1.22;;;3.70;99.90;;;;;;1845171;78;21170;-79
2022/01/08 10:09:04;;;;;;;;;;;3.70;99.90;;;;;;1847917;78;21049;-86
2022/01/08 10:11:32;;;;;;;4.10;1.10;;;3.50;99.90;;;;;;1845013;78;20147;-87
2022/01/08 10:14:16;;;;;;;1.47;1.02;;;3.50;99.90;;;;;;1845673;78;21134;-88
2022/01/08 10:19:24;;;;;;;2.65;0.80;;;3.50;99.90;;;;;;1819280;78;21151;-88
2022/01/08 10:21:54;;;;;;;3.70;1.20;;;3.50;99.90;;;;;;1846498;78;21586;-88
2022/01/08 10:24:26;;;;;;;4.55;1.15;;;3.70;99.90;;;;;;1837574;78;21060;-88
2022/01/08 10:27:06;;;;;;;4.85;1.30;;;3.80;99.90;;;;;;1846933;78;21073;-88
2022/01/08 10:29:35;;;;;;;4.87;1.25;;;3.90;99.90;;;;;;1845932;77;21072;-86
2022/01/08 10:32:03;;;;;;;5.42;1.37;;;4.10;99.90;;;;;;1844473;77;21550;-82
2022/01/08 10:34:32;;;;;;;2.95;1.40;;;4.30;99.90;;;;;;1814508;78;21437;-83
2022/01/08 10:37:01;;;;;;;5.42;1.37;;;4.20;99.90;;;;;;1844802;78;21081;-82
2022/01/08 10:39:36;;;;;;;2.72;1.10;;;4.20;99.90;;;;;;1844774;78;21151;-83
2022/01/08 10:42:12;;;;;;;3.62;1.20;;;4.30;99.90;;;;;;1844731;78;21069;-81
2022/01/08 10:44:46;;;;;;;4.37;1.00;;;4.20;99.90;;;;;;1844920;78;21115;-81
2022/01/08 10:47:18;;;;;;;2.40;1.30;;;4.00;99.90;;;;;;1845284;78;21152;-83
2022/01/08 10:49:47;;;;;;;3.45;1.10;;;3.90;99.90;;;;;;1814582;78;21057;-80
2022/01/08 10:52:20;;;;;;;1.32;1.10;;;3.80;99.90;;;;;;1845077;78;21127;-79
2022/01/08 10:55:01;;;;;;;1.60;1.00;;;3.80;99.90;;;;;;1845012;78;21127;-80
2022/01/08 10:57:34;;;;;;;1.62;0.90;;;3.70;99.90;;;;;;1845233;78;21125;-86
2022/01/08 11:00:03;;;;;;;3.17;0.90;;;3.70;99.90;;;;;;1844436;78;21096;-82
2022/01/08 11:02:31;;;;;;;2.40;1.27;;;3.70;99.90;;;;;;1844391;78;21480;-87
2022/01/08 11:04:58;;;;;;;2.33;1.20;;;3.70;99.90;;;;;;1814397;78;21068;-83
2022/01/08 11:07:26;;;;;;;3.77;1.32;;;3.80;99.90;;;;;;1844592;78;21068;-83
2022/01/08 11:10:04;;;;;;;2.17;1.12;;;3.80;99.90;;;;;;1844353;78;21550;-81
2022/01/08 11:12:40;;;;;;;3.40;1.55;;;3.80;99.90;;;;;;1844283;77;21080;-89
2022/01/08 11:17:49;;;;;;;5.28;1.30;;;4.10;99.90;;;;;;1845907;78;21105;-90
2022/01/08 11:20:20;;;;;;;2.60;1.15;;;4.40;99.90;;;;;;1845038;78;21053;-90
2022/01/08 11:22:50;;;;;;;3.83;1.42;;;4.30;99.90;;;;;;1845234;78;21465;-90
2022/01/08 11:25:19;;;;;;;2.25;1.20;;;4.60;99.90;;;;;;1846366;77;21064;-89
2022/01/08 11:28:11;;;;;;;2.30;1.30;;;5.40;99.90;;;;;;1841311;78;21099;-89
2022/01/08 11:30:38;;;;;;;2.87;1.20;;;6.00;99.90;;;;;;1846642;76;21097;-89
2022/01/08 11:33:13;;;;;;;6.33;1.57;;;6.70;99.90;;;;;;1846819;78;21093;-90
2022/01/08 11:35:40;;;;;;;3.45;1.20;;;7.00;99.90;;;;;;1846365;76;21135;-89
2022/01/08 11:38:08;;;;;;;2.90;1.25;;;7.50;99.90;;;;;;1820862;75;21148;-82
2022/01/08 11:40:37;;;;;;;4.62;1.10;;;7.00;99.90;;;;;;1799358;77;21087;-89
2022/01/08 11:43:05;;;;;;;2.17;1.10;;;6.30;99.90;;;;;;1802090;77;21514;-89
2022/01/08 11:45:52;;;;;;;2.27;1.10;;;6.10;99.90;;;;;;1807386;77;21506;-88
2022/01/08 11:48:19;;;;;;;5.12;1.32;;;5.70;99.90;;;;;;1785679;77;21400;-87
2022/01/08 11:50:56;;;;;;;8.55;1.20;;;5.30;99.90;;;;;;1814066;77;21164;-79
2022/01/08 11:53:29;;;;;;;1.62;0.85;;;4.90;99.90;;;;;;1797740;77;21129;-85
2022/01/08 11:55:58;;;;;;;2.67;1.07;;;4.60;99.90;;;;;;1805037;77;21494;-82
2022/01/08 11:58:33;;;;;;;3.15;1.07;;;4.50;99.90;;;;;;1806587;77;21179;-79
2022/01/08 12:01:06;;;;;;;3.50;1.20;;;4.50;99.90;;;;;;1808523;77;21071;-75
2022/01/08 12:03:38;;;;;;;3.95;1.60;;;4.50;99.90;;;;;;1813090;76;21498;-84
2022/01/08 12:06:32;;;;;;;2.95;1.10;;;4.50;99.90;;;;;;1801716;77;21164;-79
2022/01/08 12:11:54;;;;;;;4.53;1.55;;;4.50;99.90;;;;;;1802947;77;21595;-85
2022/01/08 12:14:37;;;;;;;2.45;1.17;;;4.60;99.90;;;;;;1779568;78;21083;-75
2022/01/08 12:17:15;;;;;;;3.65;1.40;;;4.70;99.90;;;;;;1807736;78;21270;-75
2022/01/08 12:19:53;;;;;;;3.20;1.22;;;4.90;99.90;;;;;;1804427;77;21111;-74
2022/01/08 12:22:24;;;;;;;3.98;0.95;;;5.10;99.90;;;;;;1797197;76;21168;-76
2022/01/08 12:24:55;;;;;;;5.87;1.45;;;5.00;99.90;;;;;;1802033;77;21092;-75
2022/01/08 12:27:38;;;;;;;1.87;1.10;;;5.00;99.90;;;;;;1794046;77;21080;-83
2022/01/08 12:30:21;;;;;;;8.58;1.30;;;4.90;99.90;;;;;;1797770;77;21576;-78
2022/01/08 12:32:55;;;;;;;2.80;0.90;;;6.00;99.90;;;;;;1796494;77;21102;-79
2022/01/08 12:35:38;;;;;;;3.60;0.93;;;7.10;99.90;;;;;;1807782;77;21086;-80
2022/01/08 12:38:06;;;;;;;1.80;0.85;;;7.50;99.90;;;;;;1805951;78;21229;-76
2022/01/08 12:40:39;;;;;;;3.80;1.50;;;7.50;99.90;;;;;;1804512;77;21283;-76
2022/01/08 12:43:18;;;;;;;6.60;1.20;;;7.70;99.90;;;;;;1796107;77;21086;-77
2022/01/08 12:45:48;;;;;;;2.45;0.98;;;7.90;99.90;;;;;;1802911;78;21709;-78
2022/01/08 12:48:14;;;;;;;1.92;0.98;;;7.80;99.90;;;;;;1802815;78;21306;-78
2022/01/08 12:50:48;;;;;;;2.33;1.17;;;7.10;99.90;;;;;;1796000;77;21172;-77
2022/01/08 12:53:24;;;;;;;2.70;1.10;;;7.20;99.90;;;;;;1814229;77;21498;-78
2022/01/08 12:56:02;;;;;;;2.00;0.72;;;6.80;99.90;;;;;;1797316;78;21505;-79
2022/01/08 12:58:32;;;;;;;2.55;1.00;;;6.40;99.90;;;;;;1812920;77;21176;-78
2022/01/08 13:01:13;;;;;;;2.10;1.05;;;6.20;99.90;;;;;;1796568;77;21172;-78
2022/01/08 13:03:43;;;;;;;3.00;1.02;;;6.00;99.90;;;;;;1795717;78;21097;-78
2022/01/08 13:06:17;;;;;;;1.00;0.88;;;5.80;99.90;;;;;;1809356;77;21182;-77
2022/01/08 13:08:50;;;;;;;2.95;1.10;;;5.50;99.90;;;;;;1797708;77;21494;-78
2022/01/08 13:11:22;;;;;;;2.27;1.20;;;5.60;99.90;;;;;;1803747;78;21184;-78
2022/01/08 13:13:53;;;;;;;2.10;0.88;;;5.80;99.90;;;;;;1799449;77;21075;-77
2022/01/08 13:16:28;;;;;;;2.27;1.07;;;6.80;99.90;;;;;;1802429;78;21102;-78
2022/01/08 13:19:03;;;;;;;1.42;0.85;;;7.30;99.90;;;;;;1804236;78;21075;-78
2022/01/08 13:21:38;;;;;;;1.17;0.80;;;6.80;99.90;;;;;;1798359;78;21081;-79
2022/01/08 13:24:16;;;;;;;1.52;1.10;;;6.00;99.90;;;;;;1804314;77;21070;-76
2022/01/08 13:26:45;;;;;;;4.15;1.70;;;5.80;99.90;;;;;;1799090;77;21568;-78
2022/01/08 13:29:20;;;;;;;3.10;1.22;;;5.60;99.90;;;;;;1794421;78;21102;-79
2022/01/08 13:31:50;;;;;;;1.67;1.00;;;5.30;99.90;;;;;;1804708;77;21167;-79
2022/01/08 13:34:17;;;;;;;3.42;1.20;;;5.20;99.90;;;;;;1797731;78;21167;-78
2022/01/08 13:37:10;;;;;;;2.85;1.12;;;5.00;99.90;;;;;;1802945;77;21662;-75